createdAt,value
2023-02-03T00:03:04.276Z,1.80
2023-02-03T00:07:21.420Z,1.70
2023-02-03T00:11:39.507Z,1.70
2023-02-03T00:15:56.558Z,1.60
2023-02-03T00:20:13.669Z,1.60
2023-02-03T00:24:30.745Z,1.70
2023-02-03T00:28:48.064Z,1.70
2023-02-03T00:33:05.163Z,1.80
2023-02-03T00:37:23.178Z,1.90
2023-02-03T00:41:40.293Z,1.90
2023-02-03T00:45:57.433Z,2.00
2023-02-03T00:50:14.532Z,2.20
2023-02-03T00:54:33.649Z,2.30
2023-02-03T00:58:51.016Z,2.30
2023-02-03T01:03:08.227Z,2.40
2023-02-03T01:07:25.348Z,2.50
2023-02-03T01:11:42.461Z,2.60
2023-02-03T01:15:59.551Z,2.70
2023-02-03T01:20:17.081Z,2.70
2023-02-03T01:24:34.174Z,2.80
2023-02-03T01:28:56.227Z,2.90
2023-02-03T01:33:13.371Z,3.00
2023-02-03T01:37:30.513Z,3.10
2023-02-03T01:41:47.631Z,3.30
2023-02-03T01:46:18.119Z,3.30
2023-02-03T01:50:37.171Z,3.40
2023-02-03T01:54:56.884Z,3.50
2023-02-03T01:59:17.469Z,3.50
2023-02-03T02:03:50.554Z,3.60
2023-02-03T02:08:09.241Z,3.60
2023-02-03T02:12:26.323Z,3.60
2023-02-03T02:16:55.380Z,3.70
2023-02-03T02:21:32.247Z,3.80
2023-02-03T02:26:04.702Z,3.90
2023-02-03T02:30:40.583Z,3.90
2023-02-03T02:35:10.267Z,3.90
2023-02-03T02:39:33.281Z,3.90
2023-02-03T02:44:01.459Z,3.90
2023-02-03T02:48:36.405Z,3.90
2023-02-03T02:52:55.393Z,4.00
2023-02-03T02:57:13.893Z,4.00
2023-02-03T03:01:31.494Z,4.00
2023-02-03T03:05:55.714Z,4.10
2023-02-03T03:10:16.338Z,4.10
2023-02-03T03:14:35.577Z,4.10
2023-02-03T03:18:56.125Z,4.10
2023-02-03T03:23:28.090Z,4.20
2023-02-03T03:27:52.048Z,4.20
2023-02-03T03:32:09.890Z,4.20
2023-02-03T03:36:44.903Z,4.30
2023-02-03T03:41:07.652Z,4.40
2023-02-03T03:45:31.221Z,4.40
2023-02-03T03:49:49.703Z,4.50
2023-02-03T03:54:08.824Z,4.50
2023-02-03T03:58:31.639Z,4.60
2023-02-03T04:02:53.155Z,4.60
2023-02-03T04:07:10.296Z,4.70
2023-02-03T04:11:46.099Z,4.70
2023-02-03T04:16:03.291Z,4.80
2023-02-03T04:20:21.147Z,5.00
2023-02-03T04:24:38.249Z,4.90
2023-02-03T04:28:55.342Z,5.10
2023-02-03T04:33:12.438Z,5.10
2023-02-03T04:37:29.708Z,5.10
2023-02-03T04:41:46.824Z,5.20
2023-02-03T04:46:04.148Z,5.20
2023-02-03T04:50:21.301Z,5.30
2023-02-03T04:54:38.577Z,5.30
2023-02-03T04:58:55.661Z,5.30
2023-02-03T05:03:12.880Z,5.30
2023-02-03T05:07:30.029Z,5.30
2023-02-03T05:11:47.110Z,5.20
2023-02-03T05:16:04.540Z,5.20
2023-02-03T05:20:22.430Z,5.20
2023-02-03T05:24:39.548Z,5.10
2023-02-03T05:28:57.754Z,5.10
2023-02-03T05:33:14.939Z,5.20
2023-02-03T05:37:32.012Z,5.20
2023-02-03T05:41:52.227Z,5.20
2023-02-03T05:46:09.382Z,5.20
2023-02-03T05:50:27.905Z,5.20
2023-02-03T05:54:45.139Z,5.30
2023-02-03T05:59:02.403Z,5.30
2023-02-03T06:03:19.981Z,5.30
2023-02-03T06:07:37.183Z,5.30
2023-02-03T06:11:54.295Z,5.30
2023-02-03T06:16:11.470Z,5.30
2023-02-03T06:20:28.935Z,5.40
2023-02-03T06:24:47.996Z,5.40
2023-02-03T06:29:05.086Z,5.40
2023-02-03T06:33:22.306Z,5.40
2023-02-03T06:37:39.514Z,5.40
2023-02-03T06:41:56.756Z,5.40
2023-02-03T06:46:13.907Z,5.60
2023-02-03T06:50:31.106Z,5.60
2023-02-03T06:54:48.270Z,5.50
2023-02-03T06:59:05.563Z,5.50
2023-02-03T07:03:22.707Z,5.60
2023-02-03T07:07:39.772Z,5.60
2023-02-03T07:11:56.839Z,5.60
2023-02-03T07:16:14.458Z,5.70
2023-02-03T07:20:32.921Z,5.60
2023-02-03T07:24:50.027Z,5.70
2023-02-03T07:29:07.150Z,5.80
2023-02-03T07:33:24.369Z,5.70
2023-02-03T07:37:42.663Z,5.70
2023-02-03T07:41:59.736Z,5.70
2023-02-03T07:46:16.907Z,5.80
2023-02-03T07:50:34.319Z,5.80
2023-02-03T07:54:51.397Z,5.90
2023-02-03T07:59:08.492Z,5.90
2023-02-03T08:03:25.932Z,6.00
2023-02-03T08:07:43.281Z,6.10
2023-02-03T08:12:00.320Z,6.10
2023-02-03T08:16:17.549Z,6.10
2023-02-03T08:20:34.719Z,6.20
2023-02-03T08:24:51.995Z,6.40
2023-02-03T08:29:09.097Z,6.50
2023-02-03T08:33:26.325Z,6.60
2023-02-03T08:37:43.855Z,6.70
2023-02-03T08:42:01.266Z,6.70
2023-02-03T08:46:18.663Z,6.80
2023-02-03T08:50:35.789Z,6.90
2023-02-03T08:54:52.860Z,7.00
2023-02-03T08:59:09.971Z,6.90
2023-02-03T09:03:27.042Z,6.90
2023-02-03T09:07:44.707Z,7.00
2023-02-03T09:12:05.402Z,7.00
2023-02-03T09:16:22.851Z,7.10
2023-02-03T09:20:40.030Z,7.20
2023-02-03T09:24:57.964Z,7.20
2023-02-03T09:29:15.117Z,7.30
2023-02-03T09:33:32.232Z,7.30
2023-02-03T09:37:49.406Z,7.40
2023-02-03T09:42:53.959Z,7.40
2023-02-03T09:47:18.632Z,7.50
2023-02-03T09:52:23.453Z,7.40
2023-02-03T09:56:41.768Z,7.50
2023-02-03T10:01:05.698Z,7.60
2023-02-03T10:05:46.606Z,7.60
2023-02-03T10:10:17.700Z,7.60
2023-02-03T10:14:40.066Z,7.60
2023-02-03T10:19:03.899Z,7.60
2023-02-03T10:23:33.154Z,7.60
2023-02-03T10:27:51.731Z,7.60
2023-02-03T10:32:10.862Z,7.70
2023-02-03T10:36:54.796Z,7.60
2023-02-03T10:41:12.092Z,7.60
2023-02-03T10:45:33.600Z,7.60
2023-02-03T10:49:52.410Z,7.50
2023-02-03T10:54:35.456Z,7.40
2023-02-03T10:58:58.461Z,7.20
2023-02-03T11:03:29.445Z,7.00
2023-02-03T11:07:46.947Z,7.00
2023-02-03T11:12:14.277Z,7.10
2023-02-03T11:16:34.121Z,7.00
2023-02-03T11:20:51.188Z,7.00
2023-02-03T11:25:26.929Z,7.10
2023-02-03T11:29:47.509Z,7.20
2023-02-03T11:34:17.096Z,7.20
2023-02-03T11:38:40.867Z,7.20
2023-02-03T11:42:57.899Z,7.20
2023-02-03T11:47:16.882Z,7.30
2023-02-03T11:51:52.626Z,7.20
2023-02-03T11:56:27.706Z,7.00
2023-02-03T12:01:11.571Z,7.00
2023-02-03T12:05:54.096Z,6.90
2023-02-03T12:10:46.709Z,6.90
2023-02-03T12:15:24.380Z,6.80
2023-02-03T12:20:12.209Z,6.70
2023-02-03T12:24:44.451Z,6.70
2023-02-03T12:29:18.070Z,6.80
2023-02-03T12:33:44.251Z,6.80
2023-02-03T12:38:16.315Z,6.80
2023-02-03T12:42:46.690Z,6.80
2023-02-03T12:47:12.551Z,6.80
2023-02-03T12:51:43.859Z,7.00
2023-02-03T12:56:12.234Z,7.00
2023-02-03T13:00:54.475Z,6.90
2023-02-03T13:05:27.259Z,7.00
2023-02-03T13:09:59.136Z,7.00
2023-02-03T13:14:38.985Z,7.00
2023-02-03T13:19:02.387Z,7.20
2023-02-03T13:23:20.083Z,7.20
2023-02-03T13:27:59.192Z,7.30
2023-02-03T13:32:24.996Z,7.30
2023-02-03T13:37:07.078Z,7.20
2023-02-03T13:41:48.298Z,7.20
2023-02-03T13:46:09.358Z,7.20
2023-02-03T13:50:29.995Z,7.20
2023-02-03T13:54:47.284Z,7.20
2023-02-03T13:59:06.141Z,7.20
2023-02-03T14:03:26.081Z,7.20
2023-02-03T14:07:43.421Z,7.30
2023-02-03T14:12:15.519Z,7.30
2023-02-03T14:16:37.609Z,7.40
2023-02-03T14:21:10.631Z,7.30
2023-02-03T14:25:28.578Z,7.50
2023-02-03T14:29:46.276Z,7.50
2023-02-03T14:34:06.808Z,7.40
2023-02-03T14:38:32.256Z,7.40
2023-02-03T14:43:16.934Z,7.40
2023-02-03T14:47:33.972Z,7.40
2023-02-03T14:52:05.049Z,7.30
2023-02-03T14:57:18.565Z,7.10
2023-02-03T15:01:35.718Z,7.10
2023-02-03T15:05:56.070Z,7.10
2023-02-03T15:10:21.804Z,7.00
2023-02-03T15:14:38.924Z,7.00
2023-02-03T15:19:00.628Z,6.90
2023-02-03T15:23:23.011Z,6.90
2023-02-03T15:27:40.087Z,6.90
2023-02-03T15:32:12.680Z,6.90
2023-02-03T15:36:42.796Z,6.80
2023-02-03T15:41:00.042Z,6.80
2023-02-03T15:45:26.749Z,6.70
2023-02-03T15:49:44.538Z,6.80
2023-02-03T15:54:20.053Z,6.70
2023-02-03T15:58:45.606Z,6.90
2023-02-03T16:03:05.387Z,7.00
2023-02-03T16:07:28.966Z,6.80
2023-02-03T16:11:46.268Z,6.70
2023-02-03T16:16:10.450Z,6.80
2023-02-03T16:20:33.315Z,6.90
2023-02-03T16:24:50.400Z,6.90
2023-02-03T16:29:26.291Z,6.90
2023-02-03T16:34:08.884Z,6.90
2023-02-03T16:38:44.811Z,6.90
2023-02-03T16:43:21.248Z,6.80
2023-02-03T16:47:57.996Z,6.90
2023-02-03T16:52:15.086Z,6.90
2023-02-03T16:56:32.289Z,7.00
2023-02-03T17:00:51.995Z,7.00
2023-02-03T17:05:09.180Z,7.00
2023-02-03T17:09:26.257Z,6.90
2023-02-03T17:13:43.916Z,6.90
2023-02-03T17:18:01.257Z,6.90
2023-02-03T17:22:18.312Z,6.90
2023-02-03T17:26:35.482Z,6.80
2023-02-03T17:30:57.285Z,6.80
2023-02-03T17:35:14.401Z,6.70
2023-02-03T17:57:34.302Z,6.60
2023-02-03T18:01:53.140Z,6.60
2023-02-03T18:06:10.355Z,6.60
2023-02-03T18:10:27.504Z,6.60
2023-02-03T18:14:44.583Z,6.60
2023-02-03T18:19:04.824Z,6.50
2023-02-03T18:23:22.279Z,6.50
2023-02-03T18:27:39.383Z,6.50
2023-02-03T18:31:56.489Z,6.50
2023-02-03T18:36:15.290Z,6.50
2023-02-03T18:40:32.521Z,6.40
2023-02-03T18:44:49.672Z,6.60
2023-02-03T18:49:09.226Z,6.60
2023-02-03T18:53:26.293Z,6.50
2023-02-03T18:57:43.403Z,6.50
2023-02-03T19:02:01.219Z,6.50
2023-02-03T19:06:18.575Z,6.40
2023-02-03T19:10:36.269Z,6.40
2023-02-03T19:14:53.817Z,6.30
2023-02-03T19:19:13.013Z,6.30
2023-02-03T19:23:30.288Z,6.30
2023-02-03T19:27:48.168Z,6.30
2023-02-03T19:32:06.711Z,6.30
2023-02-03T19:36:23.801Z,6.30
2023-02-03T19:40:40.805Z,6.30
2023-02-03T19:44:57.878Z,6.30
2023-02-03T19:49:15.724Z,6.30
2023-02-03T19:53:33.150Z,6.30
2023-02-03T19:57:50.291Z,6.30
2023-02-03T20:02:14.112Z,6.30
2023-02-03T20:06:32.062Z,6.30
2023-02-03T20:10:49.409Z,6.30
2023-02-03T20:15:07.086Z,6.30
2023-02-03T20:19:24.177Z,6.30
2023-02-03T20:23:41.289Z,6.30
2023-02-03T20:28:01.824Z,6.30
2023-02-03T20:32:19.035Z,6.30
2023-02-03T20:36:36.114Z,6.30
2023-02-03T20:40:53.191Z,6.30
2023-02-03T20:45:15.145Z,6.30
2023-02-03T20:49:32.222Z,6.20
2023-02-03T20:53:50.024Z,6.20
2023-02-03T20:58:18.148Z,6.20
2023-02-03T21:02:55.237Z,6.20
2023-02-03T21:07:17.981Z,6.10
2023-02-03T21:11:35.190Z,6.10
2023-02-03T21:15:59.455Z,6.00
2023-02-03T21:20:29.482Z,6.00
2023-02-03T21:24:56.921Z,6.00
2023-02-03T21:29:22.440Z,6.00
2023-02-03T21:33:42.802Z,6.10
2023-02-03T21:38:02.459Z,6.10
2023-02-03T21:42:41.550Z,6.00
2023-02-03T21:47:04.263Z,6.00
2023-02-03T21:51:26.642Z,5.90
2023-02-03T21:55:43.840Z,5.90
2023-02-03T22:00:00.983Z,5.80
2023-02-03T22:04:18.051Z,5.80
2023-02-03T22:08:40.405Z,5.60
2023-02-03T22:12:57.526Z,5.60
2023-02-03T22:17:14.987Z,5.60
2023-02-03T22:21:32.214Z,5.50
2023-02-03T22:25:49.862Z,5.50
2023-02-03T22:30:07.579Z,5.40
2023-02-03T22:34:24.691Z,5.50
2023-02-03T22:38:42.319Z,5.50
2023-02-03T22:42:59.398Z,5.40
2023-02-03T22:47:16.471Z,5.40
2023-02-03T22:51:33.548Z,5.30
2023-02-03T22:55:50.736Z,5.10
2023-02-03T23:00:10.973Z,5.30
2023-02-03T23:04:28.191Z,5.20
2023-02-03T23:08:45.334Z,5.10
2023-02-03T23:13:02.441Z,4.90
2023-02-03T23:17:19.619Z,4.70
2023-02-03T23:21:36.665Z,4.60
2023-02-03T23:25:53.734Z,4.40
2023-02-03T23:30:11.572Z,4.30
2023-02-03T23:34:47.482Z,4.30
2023-02-03T23:39:04.548Z,4.20
2023-02-03T23:43:21.628Z,4.10
2023-02-03T23:47:43.144Z,4.10
2023-02-03T23:52:00.203Z,4.10
2023-02-03T23:56:17.274Z,4.10
